Time;durP1;ratioP1;P1;durP2;ratioP2;P2;SDS_P1;SDS_P2;PMS_P1;PMS_P2;Temp;Humidity;BMP_temperature;BMP_pressure;BME280_temperature;BME280_humidity;BME280_pressure;Samples;Min_cycle;Max_cycle;Signal;HPM_P1;HPM_P2
2020/12/06 00:01:16;;;;;;;22.17;13.57;;;5.40;99.90;;;;;;4829668;28;20293;-86
2020/12/06 00:03:38;;;;;;;16.63;10.27;;;5.30;99.90;;;;;;4834722;28;20260;-88
2020/12/06 00:06:01;;;;;;;20.13;12.67;;;5.20;99.90;;;;;;4802593;28;20196;-87
2020/12/06 00:08:23;;;;;;;15.10;10.43;;;5.20;1.00;;;;;;4833792;28;20296;-86
2020/12/06 00:10:45;;;;;;;14.83;10.07;;;5.30;1.00;;;;;;4829620;28;20198;-89
2020/12/06 00:13:07;;;;;;;16.73;10.27;;;5.90;1.00;;;;;;4842139;28;20225;-84
2020/12/06 00:15:29;;;;;;;13.63;9.67;;;5.30;1.00;;;;;;4820232;28;20203;-85
2020/12/06 00:17:52;;;;;;;15.90;9.90;;;5.40;1.00;;;;;;4804819;28;20243;-87
2020/12/06 00:20:14;;;;;;;16.87;10.20;;;5.50;1.00;;;;;;4847638;28;20186;-86
2020/12/06 00:22:37;;;;;;;13.10;9.30;;;5.50;1.00;;;;;;4847445;28;20233;-87
2020/12/06 00:24:59;;;;;;;14.17;9.77;;;5.30;1.00;;;;;;4828571;28;20659;-85
2020/12/06 00:27:21;;;;;;;29.30;20.63;;;5.50;1.00;;;;;;4819567;28;20282;-86
2020/12/06 00:29:44;;;;;;;24.20;17.03;;;;;;;;;;4828991;28;20210;-85
2020/12/06 00:32:06;;;;;;;46.77;25.90;;;;;;;;;;4828469;28;20682;-84
2020/12/06 00:34:28;;;;;;;34.73;20.73;;;5.70;1.00;;;;;;4821250;28;20184;-88
2020/12/06 00:36:50;;;;;;;32.97;18.93;;;5.10;1.00;;;;;;4819606;28;20194;-86
2020/12/06 00:39:13;;;;;;;23.27;14.60;;;5.40;1.00;;;;;;4824126;28;21804;-87
2020/12/06 00:41:35;;;;;;;19.93;12.30;;;5.60;1.00;;;;;;4820334;28;20246;-84
2020/12/06 00:43:57;;;;;;;16.70;10.77;;;5.80;1.00;;;;;;4816332;28;20198;-87
2020/12/06 00:46:20;;;;;;;17.60;10.53;;;5.80;1.00;;;;;;4823807;28;20194;-87
2020/12/06 00:48:43;;;;;;;16.73;10.43;;;5.10;1.00;;;;;;4825289;28;20750;-86
2020/12/06 00:51:07;;;;;;;15.07;9.83;;;5.80;99.90;;;;;;4814669;28;20192;-78
2020/12/06 00:53:33;;;;;;;14.80;9.60;;;5.40;99.90;;;;;;4811013;28;20202;-84
2020/12/06 00:55:56;;;;;;;18.93;10.70;;;5.90;99.90;;;;;;4816466;28;20196;-85
2020/12/06 00:58:19;;;;;;;15.37;9.23;;;6.30;99.90;;;;;;4830789;28;20241;-86
2020/12/06 01:00:41;;;;;;;32.33;15.37;;;5.90;99.90;;;;;;4827535;28;20207;-83
2020/12/06 01:03:04;;;;;;;14.43;9.33;;;;;;;;;;4823849;28;20249;-84
2020/12/06 01:05:26;;;;;;;17.53;10.40;;;5.80;99.90;;;;;;4832319;28;20661;-77
2020/12/06 01:07:48;;;;;;;12.20;8.63;;;;;;;;;;4828279;28;20341;-84
2020/12/06 01:10:12;;;;;;;13.87;9.83;;;6.00;99.90;;;;;;4826514;28;20200;-85
2020/12/06 01:12:36;;;;;;;20.40;12.10;;;5.90;99.90;;;;;;4828100;28;20195;-85
2020/12/06 01:14:58;;;;;;;22.37;13.73;;;6.10;99.90;;;;;;4840306;28;20191;-76
2020/12/06 01:17:21;;;;;;;18.53;12.27;;;;;;;;;;4832905;28;20256;-86
2020/12/06 01:19:46;;;;;;;16.80;12.27;;;;;;;;;;4831321;28;20233;-85
2020/12/06 01:22:08;;;;;;;16.67;12.47;;;;;;;;;;4837953;28;20681;-80
2020/12/06 01:24:30;;;;;;;14.53;11.50;;;5.90;99.90;;;;;;4830899;28;20242;-82
2020/12/06 01:26:52;;;;;;;16.30;11.97;;;5.80;99.90;;;;;;4826304;28;20199;-83
2020/12/06 01:29:16;;;;;;;15.63;11.70;;;5.80;99.90;;;;;;4831050;28;20715;-85
2020/12/06 01:31:38;;;;;;;15.50;10.97;;;6.00;99.90;;;;;;4830110;28;20744;-84
2020/12/06 01:34:01;;;;;;;19.50;12.37;;;;;;;;;;4817656;28;20199;-84
2020/12/06 01:36:23;;;;;;;14.17;9.97;;;5.80;99.90;;;;;;4826731;28;20190;-83
2020/12/06 01:38:46;;;;;;;19.17;10.77;;;6.20;99.90;;;;;;4838341;28;20229;-83
2020/12/06 01:41:08;;;;;;;16.67;10.37;;;;;;;;;;4823557;28;20209;-80
2020/12/06 01:43:30;;;;;;;14.33;10.07;;;5.70;99.90;;;;;;4832613;28;20200;-85
2020/12/06 01:45:53;;;;;;;14.73;10.60;;;5.70;99.90;;;;;;4826531;28;20199;-85
2020/12/06 01:48:16;;;;;;;15.50;10.83;;;;;;;;;;4846432;28;20214;-85
2020/12/06 01:50:39;;;;;;;15.97;11.50;;;6.90;99.90;;;;;;4825169;28;20199;-82
2020/12/06 01:53:01;;;;;;;17.27;11.10;;;;;;;;;;4812927;28;20225;-84
2020/12/06 01:55:24;;;;;;;14.77;10.53;;;5.40;99.90;;;;;;4827964;28;20249;-86
2020/12/06 01:57:48;;;;;;;14.00;9.70;;;5.60;1.00;;;;;;4826337;28;20199;-86
2020/12/06 02:00:11;;;;;;;20.30;11.20;;;5.70;1.00;;;;;;4827834;28;20603;-88
2020/12/06 02:02:34;;;;;;;13.90;9.43;;;5.80;1.00;;;;;;4831915;28;20231;-85
2020/12/06 02:04:57;;;;;;;15.13;10.37;;;5.60;1.00;;;;;;4830567;28;20195;-85
2020/12/06 02:07:20;;;;;;;16.33;10.60;;;;;;;;;;4845512;28;20201;-83
2020/12/06 02:09:44;;;;;;;15.67;10.37;;;5.70;1.00;;;;;;4834527;28;20191;-87
2020/12/06 02:12:09;;;;;;;15.87;10.10;;;5.70;1.00;;;;;;4840146;28;20195;-84
2020/12/06 02:14:31;;;;;;;15.37;10.37;;;5.60;1.00;;;;;;4828850;28;20242;-82
2020/12/06 02:16:54;;;;;;;15.73;10.17;;;4.60;1.00;;;;;;4825687;28;20207;-87
2020/12/06 02:19:17;;;;;;;16.60;11.37;;;5.70;1.00;;;;;;4846630;28;20194;-84
2020/12/06 02:21:42;;;;;;;14.77;10.00;;;5.70;1.00;;;;;;4830784;28;20195;-87
2020/12/06 02:24:04;;;;;;;14.13;9.57;;;5.80;1.00;;;;;;4819669;28;20241;-82
2020/12/06 02:26:27;;;;;;;14.17;9.63;;;;;;;;;;4832548;28;20198;-84
2020/12/06 02:28:49;;;;;;;20.77;12.20;;;6.30;1.00;;;;;;4825539;28;20216;-86
2020/12/06 02:31:12;;;;;;;13.00;8.73;;;;;;;;;;4826872;28;20571;-88
2020/12/06 02:33:34;;;;;;;14.43;9.77;;;5.70;1.00;;;;;;4818273;28;20196;-89
2020/12/06 02:35:56;;;;;;;19.17;11.37;;;5.80;1.00;;;;;;4828099;28;20215;-86
2020/12/06 02:38:19;;;;;;;19.60;11.13;;;5.60;1.00;;;;;;4829419;28;20706;-85
2020/12/06 02:40:42;;;;;;;16.33;10.37;;;;;;;;;;4821437;28;20258;-86
2020/12/06 02:43:04;;;;;;;14.53;10.27;;;5.80;1.00;;;;;;4827305;28;20199;-82
2020/12/06 02:45:26;;;;;;;13.10;9.27;;;5.90;1.00;;;;;;4819850;28;20187;-80
2020/12/06 02:47:48;;;;;;;13.33;9.17;;;;;;;;;;4810869;28;20208;-82
2020/12/06 02:50:11;;;;;;;14.13;8.80;;;5.40;1.00;;;;;;4833857;28;20652;-86
2020/12/06 02:52:33;;;;;;;10.60;8.27;;;5.70;1.00;;;;;;4836018;28;20187;-86
2020/12/06 02:54:56;;;;;;;15.27;10.23;;;5.70;1.00;;;;;;4815482;28;20195;-85
2020/12/06 02:57:18;;;;;;;15.77;11.03;;;5.60;1.00;;;;;;4844767;28;20195;-86
2020/12/06 02:59:41;;;;;;;14.10;9.90;;;5.70;1.00;;;;;;4829722;28;20203;-86
2020/12/06 03:02:03;;;;;;;18.67;13.07;;;5.70;1.00;;;;;;4823548;28;20771;-84
2020/12/06 03:04:25;;;;;;;21.00;12.93;;;5.70;1.00;;;;;;4826937;28;20234;-88
2020/12/06 03:06:48;;;;;;;25.20;15.20;;;;;;;;;;4828574;28;20211;-85
2020/12/06 03:09:10;;;;;;;23.67;14.93;;;5.70;1.00;;;;;;4820329;28;20876;-88
2020/12/06 03:11:36;;;;;;;19.10;12.13;;;5.70;1.00;;;;;;4830569;28;20587;-89
2020/12/06 03:13:58;;;;;;;14.37;10.60;;;5.60;1.00;;;;;;4823131;28;20191;-79
2020/12/06 03:16:21;;;;;;;15.87;10.80;;;5.80;1.00;;;;;;4833072;28;20804;-88
2020/12/06 03:18:43;;;;;;;21.80;13.80;;;5.80;1.00;;;;;;4803106;28;20207;-88
2020/12/06 03:21:06;;;;;;;16.67;11.53;;;5.70;1.00;;;;;;4820991;28;20207;-86
2020/12/06 03:23:28;;;;;;;14.67;10.80;;;;;;;;;;4854876;28;20734;-84
2020/12/06 03:25:50;;;;;;;14.07;9.87;;;5.70;1.00;;;;;;4835001;28;20195;-85
2020/12/06 03:28:14;;;;;;;14.70;9.80;;;5.80;1.00;;;;;;4825689;28;20254;-85
2020/12/06 03:30:36;;;;;;;13.50;9.93;;;6.50;1.00;;;;;;4825511;28;20245;-89
2020/12/06 03:32:58;;;;;;;13.27;9.27;;;5.90;1.00;;;;;;4836557;28;20273;-84
2020/12/06 03:35:22;;;;;;;13.10;9.53;;;5.80;1.00;;;;;;4807837;28;20649;-87
2020/12/06 03:37:44;;;;;;;17.43;12.03;;;6.10;1.00;;;;;;4814553;28;20192;-88
2020/12/06 03:40:06;;;;;;;21.00;13.97;;;5.90;1.00;;;;;;4827015;28;20701;-85
2020/12/06 03:42:28;;;;;;;13.13;9.90;;;;;;;;;;4808431;28;20482;-84
2020/12/06 03:44:51;;;;;;;12.57;8.83;;;5.30;1.00;;;;;;4830564;28;20289;-87
2020/12/06 03:47:17;;;;;;;12.10;7.87;;;;;;;;;;4835714;28;20667;-85
2020/12/06 03:49:39;;;;;;;11.03;7.67;;;5.80;1.00;;;;;;4831450;28;20270;-83
2020/12/06 03:52:02;;;;;;;12.10;8.43;;;;;;;;;;4817724;28;20191;-81
2020/12/06 03:54:24;;;;;;;12.87;9.50;;;5.70;1.00;;;;;;4831162;28;20242;-86
2020/12/06 03:56:46;;;;;;;20.13;12.83;;;;;;;;;;4849076;28;20194;-79
2020/12/06 03:59:08;;;;;;;25.43;15.73;;;;;;;;;;4827139;28;20251;-80
2020/12/06 04:01:31;;;;;;;24.87;15.67;;;5.80;1.00;;;;;;4825140;28;20226;-86
2020/12/06 04:03:54;;;;;;;25.23;15.37;;;;;;;;;;4824450;28;20198;-86
2020/12/06 04:06:16;;;;;;;19.00;12.57;;;5.60;1.00;;;;;;4827559;28;20186;-85
2020/12/06 04:08:38;;;;;;;20.70;12.77;;;5.50;1.00;;;;;;4823767;28;20215;-86
2020/12/06 04:11:00;;;;;;;14.80;10.53;;;5.60;1.00;;;;;;4832219;28;20195;-88
2020/12/06 04:13:25;;;;;;;10.97;8.70;;;5.50;1.00;;;;;;4827100;28;20233;-88
2020/12/06 04:15:48;;;;;;;15.27;10.57;;;;;;;;;;4818052;28;20195;-87
2020/12/06 04:18:11;;;;;;;13.40;9.53;;;5.50;1.00;;;;;;4834393;28;20253;-89
2020/12/06 04:20:35;;;;;;;11.67;8.93;;;5.30;1.00;;;;;;4845360;28;20187;-88
2020/12/06 04:22:58;;;;;;;13.30;8.70;;;5.30;1.00;;;;;;4827769;28;20223;-87
2020/12/06 04:25:20;;;;;;;11.53;8.37;;;5.40;1.00;;;;;;4832306;28;20211;-87
2020/12/06 04:27:42;;;;;;;13.93;8.93;;;5.20;1.00;;;;;;4822918;28;20225;-87
2020/12/06 04:30:06;;;;;;;12.60;8.37;;;5.20;1.00;;;;;;4828065;28;20667;-88
2020/12/06 04:32:28;;;;;;;13.07;9.30;;;;;;;;;;4829225;28;20190;-81
2020/12/06 04:34:52;;;;;;;10.07;8.20;;;5.10;1.00;;;;;;4824172;28;20199;-88
2020/12/06 04:37:14;;;;;;;12.40;9.47;;;5.30;1.00;;;;;;4826813;28;20237;-86
2020/12/06 04:39:36;;;;;;;13.90;8.73;;;4.80;1.00;;;;;;4817688;28;20253;-85
2020/12/06 04:42:01;;;;;;;10.63;7.93;;;5.00;1.00;;;;;;4836283;28;20242;-85
2020/12/06 04:44:23;;;;;;;11.20;8.20;;;6.50;1.00;;;;;;4825504;28;20194;-88
2020/12/06 04:46:46;;;;;;;10.60;8.57;;;4.30;1.00;;;;;;4828445;28;20195;-88
2020/12/06 04:49:29;;;;;;;12.13;8.73;;;4.80;1.00;;;;;;4814774;28;20286;-86
2020/12/06 04:51:57;;;;;;;14.93;9.67;;;4.80;1.00;;;;;;4828330;28;20202;-88
2020/12/06 04:54:21;;;;;;;16.00;10.00;;;4.80;1.00;;;;;;4838493;28;20541;-86
2020/12/06 04:56:45;;;;;;;14.47;10.33;;;4.70;1.00;;;;;;4836667;28;20190;-87
2020/12/06 04:59:07;;;;;;;15.00;9.43;;;4.80;1.00;;;;;;4834601;28;20236;-80
2020/12/06 05:01:34;;;;;;;14.07;9.63;;;5.70;1.00;;;;;;4834414;28;20226;-86
2020/12/06 05:03:59;;;;;;;16.77;9.10;;;4.50;1.00;;;;;;4819636;28;20191;-87
2020/12/06 05:06:23;;;;;;;13.20;10.33;;;4.50;1.00;;;;;;4810984;28;20826;-86
2020/12/06 05:08:48;;;;;;;15.50;11.03;;;4.40;99.90;;;;;;4847171;28;20211;-87
2020/12/06 05:11:10;;;;;;;13.90;10.30;;;4.40;99.90;;;;;;4837833;28;20630;-85
2020/12/06 05:13:32;;;;;;;12.97;9.53;;;4.30;99.90;;;;;;4838005;28;20207;-86
2020/12/06 05:15:56;;;;;;;15.47;11.23;;;3.90;99.90;;;;;;4843929;28;20187;-87
2020/12/06 05:18:18;;;;;;;13.07;10.03;;;4.00;99.90;;;;;;4834776;28;20245;-83
2020/12/06 05:20:40;;;;;;;14.67;10.57;;;3.90;1.00;;;;;;4814124;28;20200;-87
2020/12/06 05:23:03;;;;;;;15.50;11.17;;;3.80;1.00;;;;;;4830420;28;20227;-85
2020/12/06 05:25:27;;;;;;;14.00;10.40;;;3.70;1.00;;;;;;4835826;28;20182;-87
2020/12/06 05:27:49;;;;;;;18.83;13.53;;;3.60;1.00;;;;;;4820124;28;20203;-80
2020/12/06 05:30:12;;;;;;;16.33;11.50;;;;;;;;;;4838561;28;20202;-88
2020/12/06 05:32:35;;;;;;;16.53;13.03;;;;;;;;;;4828410;28;20254;-86
2020/12/06 05:34:58;;;;;;;19.00;13.23;;;3.80;1.00;;;;;;4825961;28;20331;-86
2020/12/06 05:37:21;;;;;;;16.17;13.63;;;3.60;1.00;;;;;;4825583;28;20211;-87
2020/12/06 05:39:44;;;;;;;18.33;13.90;;;3.60;1.00;;;;;;4832416;28;20267;-87
2020/12/06 05:42:08;;;;;;;16.77;12.77;;;3.70;1.00;;;;;;4810896;28;20191;-87
2020/12/06 05:44:31;;;;;;;17.30;13.10;;;3.70;1.00;;;;;;4829758;28;20200;-89
2020/12/06 05:46:54;;;;;;;19.00;13.73;;;3.90;1.00;;;;;;4838283;28;20207;-88
2020/12/06 05:49:19;;;;;;;18.93;13.13;;;3.60;1.00;;;;;;4814383;28;20211;-88
2020/12/06 05:51:41;;;;;;;16.03;12.33;;;3.80;1.00;;;;;;4819837;28;20199;-90
2020/12/06 05:54:04;;;;;;;13.87;10.40;;;4.00;1.00;;;;;;4810021;28;20204;-87
2020/12/06 05:56:26;;;;;;;15.90;11.73;;;3.70;1.00;;;;;;4836866;28;20746;-89
2020/12/06 05:58:51;;;;;;;13.90;11.23;;;3.90;1.00;;;;;;4831534;28;20203;-83
2020/12/06 06:01:15;;;;;;;12.03;10.27;;;4.00;1.00;;;;;;4832984;28;20595;-87
2020/12/06 06:03:40;;;;;;;15.80;10.80;;;4.00;10.00;;;;;;4818501;28;20245;-86
2020/12/06 06:06:05;;;;;;;16.73;11.67;;;4.10;15.00;;;;;;4814374;28;20242;-79
2020/12/06 06:08:28;;;;;;;14.63;10.93;;;4.00;37.80;;;;;;4837309;28;20204;-87
2020/12/06 06:11:27;;;;;;;13.00;10.00;;;4.00;43.10;;;;;;4833103;28;20266;-89
2020/12/06 06:14:11;;;;;;;15.07;10.83;;;4.10;25.50;;;;;;4836608;28;20197;-89
2020/12/06 06:16:38;;;;;;;14.00;9.93;;;4.20;26.50;;;;;;4834154;28;20293;-89
2020/12/06 06:19:07;;;;;;;15.23;11.27;;;4.20;25.80;;;;;;4818390;28;20265;-87
2020/12/06 06:21:33;;;;;;;14.77;10.40;;;4.20;26.00;;;;;;4831700;28;20214;-88
2020/12/06 06:24:00;;;;;;;14.47;10.63;;;4.10;26.20;;;;;;4837690;28;20265;-88
2020/12/06 06:26:31;;;;;;;15.50;10.67;;;4.20;25.60;;;;;;4831429;28;20192;-91
2020/12/06 06:28:54;;;;;;;14.30;11.10;;;4.20;24.10;;;;;;4826947;28;20211;-89
2020/12/06 06:31:20;;;;;;;14.37;10.20;;;4.20;41.60;;;;;;4826217;28;20661;-89
2020/12/06 06:33:42;;;;;;;15.37;11.40;;;4.20;29.90;;;;;;4830420;28;20195;-85
2020/12/06 06:36:07;;;;;;;14.17;11.63;;;4.50;37.80;;;;;;4828928;28;20187;-89
2020/12/06 06:38:37;;;;;;;14.87;11.23;;;3.90;17.90;;;;;;4826567;28;20805;-77
2020/12/06 06:41:05;;;;;;;16.57;12.00;;;4.20;26.30;;;;;;4821999;28;20199;-84
2020/12/06 06:43:27;;;;;;;14.73;11.20;;;4.30;14.60;;;;;;4826316;28;20624;-87
2020/12/06 06:45:49;;;;;;;13.67;10.93;;;4.30;32.60;;;;;;4833790;28;20603;-86
2020/12/06 06:48:16;;;;;;;17.47;12.40;;;4.30;14.60;;;;;;4832335;28;20653;-87
2020/12/06 06:50:38;;;;;;;15.90;11.97;;;;;;;;;;4833142;28;20187;-87
2020/12/06 06:53:03;;;;;;;17.30;12.47;;;4.40;26.80;;;;;;4832262;28;20253;-87
2020/12/06 06:55:25;;;;;;;16.77;12.93;;;;;;;;;;4818925;28;20196;-88
2020/12/06 06:57:52;;;;;;;13.23;10.73;;;4.60;19.60;;;;;;4849182;28;20194;-86
2020/12/06 07:00:14;;;;;;;14.97;11.23;;;4.70;23.40;;;;;;4803125;28;20233;-90
2020/12/06 07:02:38;;;;;;;14.03;10.33;;;5.10;47.90;;;;;;4829121;28;20190;-88
2020/12/06 07:05:03;;;;;;;13.93;10.07;;;4.50;54.70;;;;;;4836777;28;20738;-87
2020/12/06 07:07:45;;;;;;;13.40;10.20;;;5.20;58.70;;;;;;4822049;28;20633;-88
2020/12/06 07:10:09;;;;;;;14.73;10.97;;;5.50;72.30;;;;;;4827282;28;20799;-85
2020/12/06 07:12:40;;;;;;;11.70;9.87;;;5.50;71.20;;;;;;4830731;28;20233;-87
2020/12/06 07:15:03;;;;;;;12.70;10.00;;;;;;;;;;4828701;28;20182;-82
2020/12/06 07:17:25;;;;;;;13.27;9.97;;;5.60;51.40;;;;;;4828073;28;20199;-91
2020/12/06 07:19:48;;;;;;;10.57;8.90;;;5.30;23.20;;;;;;4829258;28;20182;-83
2020/12/06 07:22:11;;;;;;;16.17;11.90;;;5.90;11.10;;;;;;4824174;28;20253;-88
2020/12/06 07:24:33;;;;;;;10.10;8.70;;;;;;;;;;4811956;28;20233;-85
2020/12/06 07:26:55;;;;;;;14.33;11.00;;;6.00;1.00;;;;;;4835038;28;21984;-90
2020/12/06 07:29:17;;;;;;;10.93;9.10;;;6.00;1.00;;;;;;4828903;28;20211;-87
2020/12/06 07:31:40;;;;;;;9.57;7.93;;;6.10;1.00;;;;;;4826068;28;20237;-86
2020/12/06 07:34:03;;;;;;;10.40;8.37;;;6.40;1.00;;;;;;4831058;28;20183;-84
2020/12/06 07:36:30;;;;;;;8.90;7.57;;;6.30;1.00;;;;;;4832885;28;20249;-89
2020/12/06 07:38:55;;;;;;;8.93;7.60;;;6.60;1.00;;;;;;4823438;28;20593;-88
2020/12/06 07:41:18;;;;;;;9.77;8.23;;;;;;;;;;4818692;28;20210;-85
2020/12/06 07:43:41;;;;;;;8.60;7.53;;;;;;;;;;4829685;28;20249;-88
2020/12/06 07:46:16;;;;;;;13.53;11.20;;;6.40;1.00;;;;;;4821784;28;20187;-90
2020/12/06 07:48:39;;;;;;;11.60;9.57;;;;;;;;;;4833912;28;20248;-82
2020/12/06 07:51:01;;;;;;;14.20;12.00;;;;;;;;;;4829887;28;20183;-85
2020/12/06 07:53:23;;;;;;;12.40;8.87;;;6.50;1.00;;;;;;4808246;28;20562;-86
2020/12/06 07:55:46;;;;;;;9.33;8.37;;;6.60;1.00;;;;;;4849465;28;20191;-88
2020/12/06 07:58:14;;;;;;;10.60;8.17;;;6.70;1.00;;;;;;4818999;28;20234;-82
2020/12/06 08:00:37;;;;;;;20.40;13.73;;;6.30;1.00;;;;;;4830479;28;20267;-89
2020/12/06 08:03:00;;;;;;;12.23;9.53;;;6.40;1.00;;;;;;4842340;28;20588;-87
2020/12/06 08:05:27;;;;;;;14.33;11.53;;;7.20;1.00;;;;;;4814950;28;20191;-87
2020/12/06 08:07:58;;;;;;;11.73;9.37;;;7.00;1.00;;;;;;4837804;28;20186;-88
2020/12/06 08:10:21;;;;;;;13.67;9.37;;;6.70;1.00;;;;;;4822932;28;20674;-86
2020/12/06 08:12:46;;;;;;;10.37;9.10;;;7.10;1.00;;;;;;4820933;28;20179;-87
2020/12/06 08:15:10;;;;;;;12.67;10.07;;;;;;;;;;4803932;28;20199;-83
2020/12/06 08:17:46;;;;;;;14.97;11.60;;;7.30;1.00;;;;;;4832791;28;20222;-86
2020/12/06 08:20:10;;;;;;;14.47;11.53;;;7.60;1.00;;;;;;4840963;28;20240;-80
2020/12/06 08:22:51;;;;;;;10.23;8.70;;;7.80;1.00;;;;;;4840863;28;20622;-85
2020/12/06 08:25:14;;;;;;;9.97;8.27;;;;;;;;;;4822596;28;20251;-84
2020/12/06 08:27:44;;;;;;;6.60;5.90;;;8.10;1.00;;;;;;4821499;28;20195;-84
2020/12/06 08:30:12;;;;;;;7.53;6.57;;;8.30;1.00;;;;;;4834059;28;20248;-86
2020/12/06 08:32:34;;;;;;;6.27;5.63;;;8.50;99.90;;;;;;4832887;28;20525;-86
2020/12/06 08:34:56;;;;;;;7.23;5.10;;;8.60;99.90;;;;;;4818173;28;20191;-87
2020/12/06 08:37:21;;;;;;;6.53;5.00;;;8.90;1.00;;;;;;4821889;28;20209;-85
2020/12/06 08:39:43;;;;;;;6.17;5.33;;;9.00;99.90;;;;;;4835446;28;20312;-86
2020/12/06 08:42:13;;;;;;;11.10;9.47;;;8.90;1.00;;;;;;4830816;28;20630;-84
2020/12/06 08:44:52;;;;;;;11.90;8.87;;;9.40;1.00;;;;;;4817368;28;20178;-83
2020/12/06 08:47:15;;;;;;;14.67;9.10;;;;;;;;;;4826631;28;20174;-82
2020/12/06 08:49:38;;;;;;;15.27;10.07;;;;;;;;;;4832962;28;20679;-85
2020/12/06 08:52:00;;;;;;;12.47;7.73;;;9.40;99.90;;;;;;4835286;28;20205;-87
2020/12/06 08:54:32;;;;;;;10.23;8.73;;;9.70;99.90;;;;;;4834661;28;20279;-83
2020/12/06 08:57:06;;;;;;;11.37;8.00;;;9.80;1.00;;;;;;4837518;28;20645;-87
2020/12/06 08:59:29;;;;;;;10.73;8.57;;;;;;;;;;4820068;28;20676;-85
2020/12/06 09:01:53;;;;;;;12.13;8.60;;;10.00;1.00;;;;;;4825665;28;20184;-88
2020/12/06 09:04:16;;;;;;;8.60;6.83;;;;;;;;;;4824798;28;20657;-85
2020/12/06 09:06:38;;;;;;;6.60;5.10;;;10.60;1.00;;;;;;4823249;28;20593;-86
2020/12/06 09:09:01;;;;;;;7.70;5.93;;;;;;;;;;4822653;28;20188;-83
2020/12/06 09:11:23;;;;;;;7.00;5.60;;;10.40;1.00;;;;;;4826636;28;20226;-84
2020/12/06 09:13:46;;;;;;;11.93;10.80;;;10.60;1.00;;;;;;4819361;28;20208;-83
2020/12/06 09:16:08;;;;;;;15.33;13.53;;;;;;;;;;4843435;28;20202;-84
2020/12/06 09:18:31;;;;;;;5.87;5.33;;;10.80;1.00;;;;;;4821907;28;20191;-81
2020/12/06 09:20:57;;;;;;;8.90;7.87;;;;;;;;;;4828879;28;20183;-82
2020/12/06 09:23:20;;;;;;;6.47;5.40;;;10.80;99.90;;;;;;4822720;28;20220;-86
2020/12/06 09:25:42;;;;;;;16.20;14.07;;;11.20;1.00;;;;;;4823608;28;20203;-84
2020/12/06 09:28:04;;;;;;;14.83;12.93;;;10.80;1.00;;;;;;4838678;28;20194;-86
2020/12/06 09:30:26;;;;;;;7.57;6.63;;;;;;;;;;4806884;28;20246;-84
2020/12/06 09:32:48;;;;;;;9.80;8.20;;;;;;;;;;4826737;28;20651;-84
2020/12/06 09:35:12;;;;;;;9.50;7.53;;;11.00;99.90;;;;;;4828787;28;20296;-86
2020/12/06 09:37:34;;;;;;;4.57;4.10;;;;;;;;;;4800310;28;20290;-85
2020/12/06 09:39:56;;;;;;;6.83;5.60;;;13.40;1.00;;;;;;4817278;28;20665;-87
2020/12/06 09:42:18;;;;;;;5.87;4.50;;;12.20;1.00;;;;;;4834771;28;20195;-86
2020/12/06 09:44:41;;;;;;;7.07;5.90;;;;;;;;;;4820744;28;20187;-85
2020/12/06 09:47:03;;;;;;;8.43;7.00;;;;;;;;;;4820423;28;20341;-85
2020/12/06 09:49:25;;;;;;;6.40;5.53;;;12.30;99.90;;;;;;4818028;28;20738;-83
2020/12/06 09:51:48;;;;;;;5.77;5.17;;;12.30;23.40;;;;;;4820681;28;20184;-81
2020/12/06 09:54:11;;;;;;;7.77;5.53;;;;;;;;;;4817871;28;20199;-83
2020/12/06 09:56:33;;;;;;;5.27;4.33;;;;;;;;;;4819252;28;20245;-85
2020/12/06 09:58:56;;;;;;;8.00;4.90;;;12.00;99.90;;;;;;4816898;28;20218;-85
2020/12/06 10:01:18;;;;;;;5.87;4.63;;;;;;;;;;4818003;28;20250;-81
2020/12/06 10:03:40;;;;;;;6.63;4.50;;;10.80;99.90;;;;;;4818316;28;20195;-85
2020/12/06 10:06:03;;;;;;;5.47;4.37;;;11.80;1.00;;;;;;4837168;28;20195;-82
2020/12/06 10:08:28;;;;;;;5.50;3.93;;;11.50;99.90;;;;;;4820272;28;20195;-83
2020/12/06 10:10:50;;;;;;;3.23;2.67;;;;;;;;;;4835785;28;20245;-86
2020/12/06 10:13:12;;;;;;;3.50;2.63;;;11.00;1.00;;;;;;4823676;28;20208;-85
2020/12/06 10:15:34;;;;;;;3.50;2.67;;;11.10;1.00;;;;;;4834551;28;20207;-83
2020/12/06 10:17:57;;;;;;;8.27;5.10;;;;;;;;;;4820146;28;20230;-83
2020/12/06 10:20:19;;;;;;;7.67;5.20;;;;;;;;;;4827480;28;20219;-82
2020/12/06 10:22:41;;;;;;;5.47;3.63;;;11.80;1.00;;;;;;4836392;28;20285;-83
2020/12/06 10:25:05;;;;;;;7.30;4.43;;;11.30;1.00;;;;;;4826378;28;20268;-80
2020/12/06 10:27:29;;;;;;;4.10;3.17;;;11.60;1.00;;;;;;4822601;28;20325;-84
2020/12/06 10:29:53;;;;;;;4.70;3.20;;;11.80;1.00;;;;;;4804276;28;20274;-81
2020/12/06 10:32:16;;;;;;;3.70;2.67;;;;;;;;;;4831295;28;20199;-82
2020/12/06 10:34:38;;;;;;;4.40;3.07;;;;;;;;;;4828100;28;20199;-81
2020/12/06 10:37:01;;;;;;;6.07;3.60;;;;;;;;;;4841970;28;20195;-83
2020/12/06 10:39:24;;;;;;;5.67;3.80;;;11.80;1.00;;;;;;4825953;28;20195;-84
2020/12/06 10:41:48;;;;;;;3.80;2.93;;;11.80;99.90;;;;;;4824870;28;20219;-80
2020/12/06 10:44:11;;;;;;;3.77;2.50;;;;;;;;;;4830254;28;20229;-82
2020/12/06 10:46:33;;;;;;;5.30;3.57;;;12.00;99.90;;;;;;4834087;28;20192;-79
2020/12/06 10:48:55;;;;;;;6.40;3.93;;;;;;;;;;4831937;28;20194;-82
2020/12/06 10:51:17;;;;;;;4.07;2.90;;;12.20;1.00;;;;;;4826840;28;20218;-82
2020/12/06 10:53:40;;;;;;;3.80;2.67;;;;;;;;;;4827625;28;20660;-80
2020/12/06 10:56:02;;;;;;;5.90;4.20;;;14.60;1.00;;;;;;4830197;28;20607;-82
2020/12/06 10:58:25;;;;;;;4.37;3.03;;;15.10;1.00;;;;;;4830292;28;20797;-83
2020/12/06 11:00:47;;;;;;;5.07;2.90;;;;;;;;;;4825163;28;20237;-82
2020/12/06 11:03:10;;;;;;;5.40;3.63;;;;;;;;;;4829457;28;20555;-82
2020/12/06 11:05:32;;;;;;;5.03;2.77;;;;;;;;;;4828084;28;20199;-84
2020/12/06 11:07:55;;;;;;;5.90;2.97;;;;;;;;;;4822300;28;20195;-82
2020/12/06 11:10:18;;;;;;;5.00;3.83;;;;;;;;;;4827405;28;20218;-81
2020/12/06 11:12:40;;;;;;;3.83;2.60;;;;;;;;;;4836695;28;20196;-80
2020/12/06 11:15:05;;;;;;;4.00;2.43;;;14.70;1.00;;;;;;4825929;28;20842;-82
2020/12/06 11:17:30;;;;;;;4.00;3.00;;;;;;;;;;4829358;28;20722;-81
2020/12/06 11:19:53;;;;;;;4.60;3.10;;;;;;;;;;4829810;28;20241;-80
2020/12/06 11:22:16;;;;;;;4.17;2.73;;;;;;;;;;4832160;28;20280;-80
2020/12/06 11:24:38;;;;;;;2.97;2.03;;;;;;;;;;4829132;28;20442;-80
2020/12/06 11:27:02;;;;;;;3.63;2.17;;;;;;;;;;4821950;28;20187;-79
2020/12/06 11:29:24;;;;;;;3.20;2.20;;;;;;;;;;4823765;28;20203;-81
2020/12/06 11:31:48;;;;;;;3.13;2.00;;;13.70;1.00;;;;;;4828154;28;20231;-79
2020/12/06 11:34:10;;;;;;;3.40;2.23;;;;;;;;;;4820214;28;20191;-81
2020/12/06 11:36:32;;;;;;;4.73;2.63;;;;;;;;;;4823051;28;20281;-80
2020/12/06 11:38:56;;;;;;;5.63;2.87;;;;;;;;;;4810778;28;20550;-81
2020/12/06 11:41:18;;;;;;;5.67;2.80;;;14.50;99.90;;;;;;4819615;28;20972;-79
2020/12/06 11:43:41;;;;;;;3.97;2.23;;;;;;;;;;4832810;28;20215;-80
2020/12/06 11:46:04;;;;;;;4.17;2.33;;;;;;;;;;4819406;28;20673;-81
2020/12/06 11:48:29;;;;;;;3.07;1.67;;;17.50;1.00;;;;;;4831388;28;20221;-80
2020/12/06 11:50:53;;;;;;;4.43;2.00;;;;;;;;;;4832369;28;20222;-83
2020/12/06 11:53:16;;;;;;;4.80;1.90;;;;;;;;;;4834720;28;20772;-83
2020/12/06 11:55:38;;;;;;;3.40;1.43;;;;;;;;;;4836877;28;20190;-84
2020/12/06 11:58:00;;;;;;;2.73;1.23;;;;;;;;;;4835884;28;20225;-83
2020/12/06 12:00:23;;;;;;;7.43;2.70;;;;;;;;;;4835271;28;20249;-80
2020/12/06 12:02:48;;;;;;;4.13;1.73;;;;;;;;;;4835735;28;20170;-82
2020/12/06 12:05:12;;;;;;;2.57;1.13;;;21.50;99.90;;;;;;4850726;28;20187;-83
2020/12/06 12:07:34;;;;;;;2.57;1.03;;;;;;;;;;4826769;28;20668;-83
2020/12/06 12:09:56;;;;;;;3.73;1.40;;;;;;;;;;4816559;28;20254;-83
2020/12/06 12:12:19;;;;;;;3.90;1.43;;;;;;;;;;4816767;28;20258;-84
2020/12/06 12:14:41;;;;;;;5.27;1.73;;;;;;;;;;4799723;28;20759;-82
2020/12/06 12:17:04;;;;;;;5.30;1.87;;;;;;;;;;4816569;28;20269;-83
2020/12/06 12:19:26;;;;;;;3.70;1.30;;;;;;;;;;4816656;28;20191;-82
2020/12/06 12:21:50;;;;;;;3.60;1.10;;;22.20;99.90;;;;;;4816604;28;20195;-81
2020/12/06 12:24:15;;;;;;;5.60;1.80;;;22.30;99.90;;;;;;4828712;28;20191;-82
2020/12/06 12:26:39;;;;;;;2.23;0.87;;;;;;;;;;4817301;28;20187;-82
2020/12/06 12:29:01;;;;;;;4.83;1.53;;;;;;;;;;4817266;28;20242;-82
2020/12/06 12:31:24;;;;;;;3.43;1.17;;;;;;;;;;4817480;28;20334;-83
2020/12/06 12:33:46;;;;;;;4.40;1.43;;;;;;;;;;4817525;28;20252;-81
2020/12/06 12:36:08;;;;;;;2.33;0.83;;;;;;;;;;4816655;28;20565;-81
2020/12/06 12:38:31;;;;;;;2.63;1.00;;;25.80;99.90;;;;;;4831637;28;20215;-81
2020/12/06 12:40:54;;;;;;;5.27;1.50;;;;;;;;;;4836136;28;20193;-81
2020/12/06 12:43:16;;;;;;;3.80;1.20;;;;;;;;;;4836856;28;20220;-81
2020/12/06 12:45:39;;;;;;;6.10;1.50;;;;;;;;;;4835969;28;20191;-80
2020/12/06 12:48:01;;;;;;;7.77;2.00;;;34.30;1.00;;;;;;4835052;28;20199;-81
2020/12/06 12:50:23;;;;;;;5.40;1.50;;;;;;;;;;4835750;28;20202;-80
2020/12/06 12:52:47;;;;;;;2.33;0.70;;;;;;;;;;4836829;28;20191;-80
2020/12/06 12:55:12;;;;;;;2.07;0.63;;;38.50;99.90;;;;;;4836917;28;20186;-79
2020/12/06 12:57:34;;;;;;;5.33;1.47;;;;;;;;;;4834664;28;20570;-80
2020/12/06 12:59:56;;;;;;;8.30;2.10;;;;;;;;;;4835673;28;20193;-82